createdAt,value
2023-05-14T00:00:26.785Z,13.56
2023-05-14T00:02:53.294Z,13.21
2023-05-14T00:05:19.695Z,12.99
2023-05-14T00:07:46.007Z,13.39
2023-05-14T00:10:12.287Z,13.76
2023-05-14T00:12:38.562Z,13.69
2023-05-14T00:15:05.473Z,13.75
2023-05-14T00:17:31.798Z,13.72
2023-05-14T00:19:59.383Z,13.43
2023-05-14T00:22:25.684Z,13.74
2023-05-14T00:24:51.979Z,13.97
2023-05-14T00:27:18.316Z,14.11
2023-05-14T00:29:45.680Z,14.10
2023-05-14T00:32:11.955Z,14.23
2023-05-14T00:34:38.232Z,14.30
2023-05-14T00:37:04.565Z,14.39
2023-05-14T00:39:30.847Z,14.41
2023-05-14T00:41:57.136Z,14.21
2023-05-14T00:44:23.582Z,13.97
2023-05-14T00:46:49.877Z,13.83
2023-05-14T00:49:16.211Z,14.10
2023-05-14T00:51:42.525Z,14.12
2023-05-14T00:54:08.850Z,14.02
2023-05-14T00:56:35.175Z,13.87
2023-05-14T00:59:01.468Z,13.84
2023-05-14T01:01:28.625Z,13.90
2023-05-14T01:03:57.673Z,14.00
2023-05-14T01:06:43.138Z,13.92
2023-05-14T01:09:12.450Z,13.93
2023-05-14T01:11:51.713Z,14.01
2023-05-14T01:14:17.958Z,13.84
2023-05-14T01:16:44.717Z,13.79
2023-05-14T01:19:26.238Z,13.68
2023-05-14T01:21:52.570Z,13.71
2023-05-14T01:24:18.939Z,13.65
2023-05-14T01:26:45.288Z,13.65
2023-05-14T01:29:23.741Z,13.60
2023-05-14T01:31:50.445Z,13.69
2023-05-14T01:34:18.072Z,13.74
2023-05-14T01:36:44.391Z,13.61
2023-05-14T01:39:10.676Z,13.53
2023-05-14T01:41:37.276Z,13.33
2023-05-14T01:44:03.580Z,13.20
2023-05-14T01:46:33.633Z,13.26
2023-05-14T01:49:00.246Z,13.29
2023-05-14T01:51:26.593Z,13.40
2023-05-14T01:53:52.899Z,13.63
2023-05-14T01:56:19.845Z,13.68
2023-05-14T01:58:46.158Z,13.56
2023-05-14T02:01:12.505Z,13.34
2023-05-14T02:03:38.866Z,13.01
2023-05-14T02:06:05.193Z,12.86
2023-05-14T02:08:31.488Z,12.94
2023-05-14T02:10:57.783Z,13.00
2023-05-14T02:13:24.800Z,13.33
2023-05-14T02:15:51.177Z,13.55
2023-05-14T02:18:17.550Z,13.67
2023-05-14T02:20:43.817Z,13.77
2023-05-14T02:23:10.260Z,13.90
2023-05-14T02:25:36.597Z,13.74
2023-05-14T02:28:02.874Z,13.20
2023-05-14T02:30:30.006Z,12.76
2023-05-14T02:32:56.468Z,12.69
2023-05-14T02:35:22.926Z,13.04
2023-05-14T02:37:49.251Z,13.15
2023-05-14T02:40:15.752Z,13.13
2023-05-14T02:42:42.038Z,13.29
2023-05-14T02:45:08.406Z,13.48
2023-05-14T02:47:36.978Z,13.52
2023-05-14T02:50:06.250Z,13.69
2023-05-14T02:52:32.732Z,13.75
2023-05-14T02:54:59.005Z,13.87
2023-05-14T02:57:25.356Z,13.89
2023-05-14T02:59:51.645Z,13.99
2023-05-14T03:02:18.446Z,14.02
2023-05-14T03:04:45.411Z,13.70
2023-05-14T03:07:11.675Z,13.65
2023-05-14T03:09:38.444Z,13.63
2023-05-14T03:12:04.923Z,13.54
2023-05-14T03:14:31.410Z,13.17
2023-05-14T03:16:57.766Z,13.11
2023-05-14T03:19:24.107Z,13.15
2023-05-14T03:21:50.463Z,13.04
2023-05-14T03:24:16.731Z,13.08
2023-05-14T03:26:43.131Z,13.00
2023-05-14T03:29:10.673Z,12.83
2023-05-14T03:31:37.118Z,12.71
2023-05-14T03:34:03.386Z,12.58
2023-05-14T03:36:29.760Z,12.59
2023-05-14T03:38:56.075Z,13.06
2023-05-14T03:41:23.020Z,13.39
2023-05-14T03:43:49.324Z,13.65
2023-05-14T03:46:15.780Z,13.69
2023-05-14T03:48:42.545Z,13.39
2023-05-14T03:51:08.841Z,13.34
2023-05-14T03:53:35.178Z,13.47
2023-05-14T03:56:01.475Z,13.65
2023-05-14T03:58:27.760Z,13.82
2023-05-14T04:00:54.063Z,13.82
2023-05-14T04:03:20.618Z,13.91
2023-05-14T04:05:46.964Z,13.96
2023-05-14T04:08:13.265Z,13.71
2023-05-14T04:10:39.575Z,13.58
2023-05-14T04:13:05.885Z,13.52
2023-05-14T04:15:32.233Z,13.32
2023-05-14T04:17:58.581Z,12.94
2023-05-14T04:20:25.156Z,12.80
2023-05-14T04:22:51.669Z,12.64
2023-05-14T04:25:18.503Z,12.50
2023-05-14T04:27:44.837Z,12.62
2023-05-14T04:30:11.257Z,12.75
2023-05-14T04:32:37.990Z,13.05
2023-05-14T04:35:04.613Z,13.36
2023-05-14T04:37:31.097Z,13.37
2023-05-14T04:39:57.404Z,13.46
2023-05-14T04:42:23.717Z,13.18
2023-05-14T04:44:50.013Z,12.73
2023-05-14T04:47:16.643Z,12.43
2023-05-14T04:49:43.283Z,12.46
2023-05-14T04:52:09.592Z,12.77
2023-05-14T04:54:36.026Z,13.06
2023-05-14T04:57:03.235Z,13.19
2023-05-14T04:59:30.017Z,13.38
2023-05-14T05:01:56.345Z,13.55
2023-05-14T05:04:23.945Z,13.61
2023-05-14T05:06:50.660Z,13.57
2023-05-14T05:09:19.623Z,13.19
2023-05-14T05:11:45.894Z,13.36
2023-05-14T05:14:12.252Z,13.54
2023-05-14T05:16:38.633Z,13.44
2023-05-14T05:19:04.973Z,13.62
2023-05-14T05:21:31.314Z,13.71
2023-05-14T05:23:57.584Z,13.27
2023-05-14T05:26:24.532Z,13.21
2023-05-14T05:28:50.864Z,13.47
2023-05-14T05:31:19.571Z,13.53
2023-05-14T05:33:46.471Z,13.52
2023-05-14T05:36:12.806Z,13.29
2023-05-14T05:38:39.130Z,13.22
2023-05-14T05:41:05.591Z,12.99
2023-05-14T05:43:33.469Z,12.54
2023-05-14T05:46:00.542Z,12.23
2023-05-14T05:48:26.924Z,12.42
2023-05-14T05:50:53.209Z,12.48
2023-05-14T05:53:19.572Z,12.46
2023-05-14T05:55:45.866Z,12.43
2023-05-14T05:58:13.923Z,12.42
2023-05-14T06:00:40.252Z,12.65
2023-05-14T06:03:07.105Z,12.58
2023-05-14T06:05:33.468Z,12.76
2023-05-14T06:07:59.805Z,12.81
2023-05-14T06:10:26.253Z,12.96
2023-05-14T06:12:52.677Z,12.98
2023-05-14T06:15:18.986Z,12.91
2023-05-14T06:17:45.804Z,12.73
2023-05-14T06:20:12.279Z,12.65
2023-05-14T06:22:38.647Z,12.52
2023-05-14T06:25:05.034Z,12.48
2023-05-14T06:27:31.290Z,12.47
2023-05-14T06:29:57.598Z,12.09
2023-05-14T06:32:23.935Z,12.18
2023-05-14T06:34:50.430Z,12.71
2023-05-14T06:37:16.859Z,12.75
2023-05-14T06:39:49.709Z,13.18
2023-05-14T06:42:16.371Z,13.07
2023-05-14T06:44:42.712Z,13.00
2023-05-14T06:47:09.118Z,12.76
2023-05-14T06:49:35.668Z,12.87
2023-05-14T06:52:01.946Z,12.83
2023-05-14T06:54:28.224Z,12.69
2023-05-14T06:56:54.560Z,12.92
2023-05-14T06:59:20.862Z,12.58
2023-05-14T07:01:47.227Z,12.27
2023-05-14T07:04:13.631Z,12.24
2023-05-14T07:06:40.045Z,12.32
2023-05-14T07:09:07.074Z,12.14
2023-05-14T07:11:33.425Z,12.33
2023-05-14T07:13:59.820Z,12.41
2023-05-14T07:16:26.141Z,12.42
2023-05-14T07:18:52.496Z,12.61
2023-05-14T07:21:18.872Z,12.22
2023-05-14T07:23:45.192Z,12.13
2023-05-14T07:26:11.702Z,12.22
2023-05-14T07:28:38.026Z,12.14
2023-05-14T07:31:08.826Z,12.45
2023-05-14T07:33:36.294Z,12.39
2023-05-14T07:36:02.580Z,12.48
2023-05-14T07:38:28.876Z,12.03
2023-05-14T07:40:55.135Z,11.92
2023-05-14T07:43:21.542Z,11.92
2023-05-14T07:45:47.835Z,12.54
2023-05-14T07:48:14.207Z,12.80
2023-05-14T07:50:40.724Z,12.79
2023-05-14T07:53:07.009Z,13.14
2023-05-14T07:55:33.290Z,12.79
2023-05-14T07:57:59.591Z,12.74
2023-05-14T08:00:26.078Z,12.26
2023-05-14T08:02:52.874Z,12.53
2023-05-14T08:05:19.471Z,12.30
2023-05-14T08:07:45.802Z,12.74
2023-05-14T08:10:12.231Z,12.59
2023-05-14T08:12:38.969Z,12.51
2023-05-14T08:15:07.561Z,12.65
2023-05-14T08:17:33.910Z,12.97
2023-05-14T08:20:00.356Z,13.29
2023-05-14T08:22:26.651Z,12.58
2023-05-14T08:24:52.935Z,12.90
2023-05-14T08:27:19.249Z,12.93
2023-05-14T08:29:45.540Z,13.04
2023-05-14T08:32:22.836Z,12.73
2023-05-14T08:34:50.617Z,12.59
2023-05-14T08:37:16.911Z,12.67
2023-05-14T08:39:43.339Z,12.79
2023-05-14T08:42:09.609Z,13.08
2023-05-14T08:44:39.847Z,13.31
2023-05-14T08:47:06.131Z,13.33
2023-05-14T08:49:35.038Z,13.48
2023-05-14T08:52:01.328Z,13.64
2023-05-14T08:54:28.770Z,13.83
2023-05-14T08:56:55.211Z,14.48
2023-05-14T08:59:21.511Z,14.32
2023-05-14T09:01:48.467Z,14.10
2023-05-14T09:04:19.610Z,14.78
2023-05-14T09:06:45.960Z,14.02
2023-05-14T09:09:12.971Z,14.12
2023-05-14T09:11:42.438Z,13.96
2023-05-14T09:14:09.756Z,14.11
2023-05-14T09:16:37.001Z,13.57
2023-05-14T09:19:04.226Z,13.76
2023-05-14T09:21:32.896Z,13.37
2023-05-14T09:23:59.894Z,13.68
2023-05-14T09:26:26.490Z,13.38
2023-05-14T09:28:56.334Z,13.37
2023-05-14T09:31:22.755Z,13.62
2023-05-14T09:33:52.096Z,13.52
2023-05-14T09:36:18.570Z,13.38
2023-05-14T09:38:44.896Z,13.32
2023-05-14T09:41:11.195Z,13.49
2023-05-14T09:43:37.502Z,13.65
2023-05-14T09:46:03.860Z,13.33
2023-05-14T09:48:30.294Z,13.49
2023-05-14T09:50:56.594Z,13.21
2023-05-14T09:53:22.939Z,13.67
2023-05-14T09:55:49.290Z,13.50
2023-05-14T09:58:15.615Z,13.49
2023-05-14T10:00:45.466Z,13.88
2023-05-14T10:03:13.074Z,13.99
2023-05-14T10:05:40.430Z,13.88
2023-05-14T10:08:12.298Z,13.60
2023-05-14T10:10:38.796Z,13.73
2023-05-14T10:13:05.761Z,13.98
2023-05-14T10:15:35.147Z,13.76
2023-05-14T10:18:03.347Z,13.38
2023-05-14T10:20:29.668Z,13.87
2023-05-14T10:22:56.401Z,14.15
2023-05-14T10:25:22.728Z,13.90
2023-05-14T10:27:49.070Z,14.17
2023-05-14T10:30:15.379Z,14.12
2023-05-14T10:32:43.901Z,14.26
2023-05-14T10:35:17.141Z,14.21
2023-05-14T10:37:43.870Z,14.00
2023-05-14T10:40:10.408Z,13.86
2023-05-14T10:42:40.607Z,14.23
2023-05-14T10:45:08.161Z,13.99
2023-05-14T10:47:44.509Z,14.37
2023-05-14T10:50:11.185Z,14.24
2023-05-14T10:52:37.549Z,14.46
2023-05-14T10:55:06.983Z,14.21
2023-05-14T10:57:34.059Z,14.19
2023-05-14T11:00:00.916Z,14.49
2023-05-14T11:02:28.477Z,14.30
2023-05-14T11:05:04.940Z,14.22
2023-05-14T11:07:38.024Z,14.00
2023-05-14T11:10:10.971Z,13.78
2023-05-14T11:12:37.992Z,14.35
2023-05-14T11:15:05.826Z,14.27
2023-05-14T11:17:32.181Z,14.71
2023-05-14T11:19:58.807Z,15.05
2023-05-14T11:22:25.132Z,14.83
2023-05-14T11:24:51.575Z,15.01
2023-05-14T11:27:18.154Z,14.49
2023-05-14T11:29:45.506Z,14.66
2023-05-14T11:32:12.050Z,14.70
2023-05-14T11:34:38.459Z,14.93
2023-05-14T11:37:05.344Z,15.00
2023-05-14T11:39:32.949Z,15.12
2023-05-14T11:41:59.443Z,15.38
2023-05-14T11:44:25.849Z,15.63
2023-05-14T11:46:58.251Z,15.27
2023-05-14T11:49:25.205Z,15.34
2023-05-14T11:52:00.872Z,15.18
2023-05-14T11:54:27.716Z,15.64
2023-05-14T11:56:54.413Z,15.25
2023-05-14T11:59:21.379Z,15.27
2023-05-14T12:01:49.494Z,15.13
2023-05-14T12:04:18.839Z,15.32
2023-05-14T12:06:46.616Z,15.39
2023-05-14T12:09:12.994Z,15.17
2023-05-14T12:11:39.377Z,15.70
2023-05-14T12:14:12.697Z,15.77
2023-05-14T12:16:40.029Z,15.31
2023-05-14T12:19:06.448Z,15.50
2023-05-14T12:21:32.769Z,15.65
2023-05-14T12:24:00.046Z,15.84
2023-05-14T12:26:27.395Z,15.56
2023-05-14T12:29:00.594Z,15.89
2023-05-14T12:31:30.609Z,15.58
2023-05-14T12:33:56.916Z,15.70
2023-05-14T12:36:23.207Z,15.51
2023-05-14T12:38:49.837Z,15.47
2023-05-14T12:41:17.196Z,15.61
2023-05-14T12:43:43.579Z,15.73
2023-05-14T12:46:09.895Z,16.07
2023-05-14T12:48:36.182Z,15.84
2023-05-14T12:51:02.490Z,15.60
2023-05-14T12:53:28.779Z,15.93
2023-05-14T12:55:55.185Z,15.99
2023-05-14T12:58:21.489Z,15.52
2023-05-14T13:00:47.947Z,15.30
2023-05-14T13:03:14.468Z,15.59
2023-05-14T13:05:40.785Z,14.89
2023-05-14T13:08:07.115Z,15.16
2023-05-14T13:10:33.445Z,15.67
2023-05-14T13:12:59.849Z,15.54
2023-05-14T13:15:26.372Z,15.67
2023-05-14T13:17:52.883Z,15.79
2023-05-14T13:20:19.269Z,16.04
2023-05-14T13:22:45.617Z,16.15
2023-05-14T13:25:11.915Z,15.94
2023-05-14T13:27:38.222Z,15.74
2023-05-14T13:30:04.685Z,15.54
2023-05-14T13:32:31.016Z,15.56
2023-05-14T13:34:57.381Z,15.62
2023-05-14T13:37:24.222Z,15.96
2023-05-14T13:39:51.546Z,16.24
2023-05-14T13:42:18.190Z,16.31
2023-05-14T13:44:44.485Z,16.33
2023-05-14T13:47:10.786Z,15.96
2023-05-14T13:49:37.130Z,16.46
2023-05-14T13:52:03.504Z,16.55
2023-05-14T13:54:29.786Z,16.62
2023-05-14T13:56:56.103Z,16.64
2023-05-14T13:59:23.774Z,16.87
2023-05-14T14:01:51.459Z,17.03
2023-05-14T14:04:18.105Z,16.83
2023-05-14T14:06:44.409Z,17.19
2023-05-14T14:09:10.802Z,16.56
2023-05-14T14:11:37.209Z,16.59
2023-05-14T14:14:03.562Z,16.34
2023-05-14T14:16:29.958Z,15.77
2023-05-14T14:18:57.264Z,15.73
2023-05-14T14:21:23.679Z,16.12
2023-05-14T14:23:49.969Z,15.95
2023-05-14T14:26:16.288Z,16.04
2023-05-14T14:28:42.832Z,16.37
2023-05-14T14:31:09.149Z,16.03
2023-05-14T14:33:35.635Z,15.73
2023-05-14T14:36:01.903Z,15.99
2023-05-14T14:38:28.387Z,15.59
2023-05-14T14:40:54.770Z,15.69
2023-05-14T14:43:21.090Z,15.94
2023-05-14T14:45:48.925Z,15.82
2023-05-14T14:48:31.786Z,15.49
2023-05-14T14:50:58.130Z,15.38
2023-05-14T14:53:24.741Z,15.24
2023-05-14T14:55:51.088Z,15.32
2023-05-14T14:58:17.924Z,15.74
2023-05-14T15:00:44.205Z,16.12
2023-05-14T15:03:10.615Z,16.34
2023-05-14T15:05:37.079Z,16.57
2023-05-14T15:08:03.649Z,16.70
2023-05-14T15:10:30.590Z,16.81
2023-05-14T15:12:57.900Z,17.04
2023-05-14T15:15:24.611Z,17.27
2023-05-14T15:17:51.063Z,16.46
2023-05-14T15:20:17.359Z,16.09
2023-05-14T15:22:43.829Z,16.54
2023-05-14T15:25:10.146Z,16.42
2023-05-14T15:27:38.245Z,16.13
2023-05-14T15:30:04.828Z,15.80
2023-05-14T15:32:31.364Z,16.05
2023-05-14T15:34:57.682Z,16.18
2023-05-14T15:37:24.015Z,16.01
2023-05-14T15:39:50.326Z,16.23
2023-05-14T15:42:16.660Z,16.39
2023-05-14T15:44:42.956Z,16.48
2023-05-14T15:47:09.246Z,16.61
2023-05-14T15:49:35.553Z,16.60
2023-05-14T15:52:02.774Z,16.46
2023-05-14T15:54:29.245Z,16.93
2023-05-14T15:56:55.939Z,16.71
2023-05-14T15:59:22.263Z,17.11
2023-05-14T16:01:50.068Z,17.50
2023-05-14T16:04:16.375Z,16.66
2023-05-14T16:06:44.732Z,17.02
2023-05-14T16:09:11.235Z,16.89
2023-05-14T16:11:37.540Z,16.44
2023-05-14T16:14:03.858Z,16.82
2023-05-14T16:16:30.307Z,17.13
2023-05-14T16:18:56.661Z,17.32
2023-05-14T16:21:22.974Z,17.23
2023-05-14T16:23:49.266Z,17.33
2023-05-14T16:26:15.707Z,17.57
2023-05-14T16:28:42.700Z,17.46
2023-05-14T16:33:35.294Z,17.12
2023-05-14T16:38:33.239Z,17.36
2023-05-14T16:40:59.640Z,17.17
2023-05-14T16:43:25.917Z,16.92
2023-05-14T16:45:52.237Z,17.00
2023-05-14T16:48:18.678Z,16.94
2023-05-14T16:50:45.026Z,16.97
2023-05-14T16:53:11.326Z,16.86
2023-05-14T16:55:37.653Z,16.27
2023-05-14T16:58:03.938Z,16.15
2023-05-14T17:00:30.499Z,16.04
2023-05-14T17:02:56.810Z,16.04
2023-05-14T17:05:23.293Z,15.95
2023-05-14T17:07:50.109Z,15.71
2023-05-14T17:10:16.561Z,15.48
2023-05-14T17:12:42.848Z,15.08
2023-05-14T17:15:09.445Z,15.31
2023-05-14T17:17:35.752Z,15.47
2023-05-14T17:20:02.069Z,15.13
2023-05-14T17:22:28.350Z,15.59
2023-05-14T17:24:54.766Z,15.82
2023-05-14T17:27:21.068Z,15.52
2023-05-14T17:29:49.225Z,15.54
2023-05-14T17:32:15.618Z,15.31
2023-05-14T17:34:41.900Z,15.46
2023-05-14T17:37:08.168Z,15.89
2023-05-14T17:39:34.555Z,15.54
2023-05-14T17:42:00.854Z,15.61
2023-05-14T17:44:27.150Z,15.50
2023-05-14T17:46:53.464Z,15.78
2023-05-14T17:49:19.762Z,15.45
2023-05-14T17:51:46.124Z,15.29
2023-05-14T17:54:12.414Z,15.55
2023-05-14T17:56:38.701Z,15.54
2023-05-14T17:59:05.012Z,15.50
2023-05-14T18:01:31.481Z,15.78
2023-05-14T18:03:57.868Z,15.98
2023-05-14T18:06:24.190Z,15.91
2023-05-14T18:08:50.506Z,15.75
2023-05-14T18:11:16.790Z,15.80
2023-05-14T18:13:43.191Z,15.78
2023-05-14T18:16:09.492Z,15.59
2023-05-14T18:18:35.855Z,15.54
2023-05-14T18:21:02.159Z,15.26
2023-05-14T18:23:28.503Z,15.52
2023-05-14T18:25:54.802Z,15.93
2023-05-14T18:28:21.469Z,16.20
2023-05-14T18:30:49.034Z,16.38
2023-05-14T18:33:15.411Z,16.64
2023-05-14T18:35:41.973Z,16.80
2023-05-14T18:38:08.276Z,16.80
2023-05-14T18:40:34.807Z,16.10
2023-05-14T18:43:01.105Z,16.22
2023-05-14T18:45:27.375Z,16.47
2023-05-14T18:47:53.700Z,16.50
2023-05-14T18:50:20.056Z,16.43
2023-05-14T18:52:46.749Z,16.36
2023-05-14T18:55:13.090Z,16.30
2023-05-14T18:57:39.380Z,16.47
2023-05-14T19:00:06.152Z,16.51
2023-05-14T19:02:32.537Z,16.39
2023-05-14T19:04:58.827Z,16.34
2023-05-14T19:07:25.116Z,16.45
2023-05-14T19:09:51.771Z,16.59
2023-05-14T19:12:18.059Z,16.59
2023-05-14T19:14:44.388Z,16.58
2023-05-14T19:17:11.030Z,16.44
2023-05-14T19:19:37.705Z,16.29
2023-05-14T19:22:04.067Z,16.45
2023-05-14T19:24:30.383Z,16.53
2023-05-14T19:26:56.675Z,16.52
2023-05-14T19:29:22.958Z,16.49
2023-05-14T19:31:49.985Z,16.47
2023-05-14T19:34:16.536Z,16.54
2023-05-14T19:36:42.852Z,16.43
2023-05-14T19:39:09.608Z,16.08
2023-05-14T19:41:36.068Z,16.07
2023-05-14T19:44:02.417Z,16.15
2023-05-14T19:46:28.754Z,16.26
2023-05-14T19:48:55.205Z,16.26
2023-05-14T19:51:21.487Z,16.30
2023-05-14T19:53:47.799Z,16.28
2023-05-14T19:56:14.099Z,15.64
2023-05-14T19:58:40.581Z,15.23
2023-05-14T20:01:06.974Z,15.56
2023-05-14T20:03:33.436Z,15.83
2023-05-14T20:05:59.758Z,15.99
2023-05-14T20:08:26.357Z,16.03
2023-05-14T20:10:52.636Z,16.11
2023-05-14T20:13:18.932Z,16.00
2023-05-14T20:15:45.280Z,16.02
2023-05-14T20:18:11.569Z,16.07
2023-05-14T20:20:37.984Z,16.07
2023-05-14T20:23:04.262Z,16.01
2023-05-14T20:25:32.594Z,15.70
2023-05-14T20:28:00.316Z,15.83
2023-05-14T20:30:27.282Z,15.92
2023-05-14T20:32:53.682Z,15.93
2023-05-14T20:35:20.040Z,15.86
2023-05-14T20:37:47.154Z,15.89
2023-05-14T20:40:13.513Z,15.85
2023-05-14T20:42:39.857Z,15.84
2023-05-14T20:45:06.645Z,15.70
2023-05-14T20:47:34.102Z,15.36
2023-05-14T20:50:00.667Z,15.23
2023-05-14T20:52:26.954Z,15.50
2023-05-14T20:54:53.332Z,15.65
2023-05-14T20:57:19.816Z,15.69
2023-05-14T20:59:46.188Z,15.17
2023-05-14T21:02:12.639Z,15.22
2023-05-14T21:04:39.141Z,15.39
2023-05-14T21:07:05.542Z,15.44
2023-05-14T21:09:31.817Z,15.37
2023-05-14T21:11:58.116Z,15.33
2023-05-14T21:14:24.450Z,14.93
2023-05-14T21:16:50.745Z,14.85
2023-05-14T21:19:17.157Z,14.49
2023-05-14T21:21:43.567Z,14.09
2023-05-14T21:24:09.852Z,14.50
2023-05-14T21:26:36.836Z,14.79
2023-05-14T21:29:03.577Z,14.86
2023-05-14T21:31:29.942Z,14.90
2023-05-14T21:33:56.331Z,14.94
2023-05-14T21:36:22.660Z,14.90
2023-05-14T21:38:48.969Z,14.85
2023-05-14T21:41:15.273Z,14.82
2023-05-14T21:43:41.625Z,14.72
2023-05-14T21:46:08.478Z,14.52
2023-05-14T21:48:34.908Z,14.42
2023-05-14T21:51:01.318Z,14.17
2023-05-14T21:53:27.637Z,14.21
2023-05-14T21:55:55.221Z,14.21
2023-05-14T21:58:21.506Z,14.41
2023-05-14T22:00:47.847Z,14.21
2023-05-14T22:03:14.474Z,14.15
2023-05-14T22:05:40.888Z,14.27
2023-05-14T22:08:07.423Z,14.45
2023-05-14T22:10:34.395Z,14.51
2023-05-14T22:13:00.700Z,14.64
2023-05-14T22:15:27.017Z,14.70
2023-05-14T22:17:53.479Z,14.67
2023-05-14T22:20:19.806Z,14.66
2023-05-14T22:22:46.114Z,14.63
2023-05-14T22:25:12.385Z,14.58
2023-05-14T22:27:38.679Z,14.55
2023-05-14T22:30:05.241Z,14.25
2023-05-14T22:32:31.568Z,13.82
2023-05-14T22:34:57.918Z,13.77
2023-05-14T22:37:24.192Z,13.76
2023-05-14T22:39:50.569Z,13.57
2023-05-14T22:42:16.905Z,13.34
2023-05-14T22:44:43.203Z,13.74
2023-05-14T22:47:09.519Z,13.80
2023-05-14T22:49:35.873Z,14.08
2023-05-14T22:52:02.251Z,14.31
2023-05-14T22:54:28.553Z,14.22
2023-05-14T22:56:54.882Z,13.86
2023-05-14T22:59:23.429Z,13.60
2023-05-14T23:01:50.307Z,13.20
2023-05-14T23:04:16.698Z,12.67
2023-05-14T23:06:43.030Z,12.63
2023-05-14T23:09:09.384Z,13.09
2023-05-14T23:11:35.680Z,13.36
2023-05-14T23:14:01.987Z,13.31
2023-05-14T23:16:28.275Z,13.30
2023-05-14T23:18:54.763Z,13.26
2023-05-14T23:21:21.184Z,13.55
2023-05-14T23:23:48.361Z,13.71
2023-05-14T23:26:14.648Z,14.12
2023-05-14T23:28:41.035Z,14.41
2023-05-14T23:31:07.351Z,14.56
2023-05-14T23:33:33.664Z,14.64
2023-05-14T23:36:00.054Z,14.60
2023-05-14T23:38:26.513Z,14.65
2023-05-14T23:40:52.857Z,14.68
2023-05-14T23:43:19.143Z,14.75
2023-05-14T23:45:45.471Z,14.73
2023-05-14T23:48:11.810Z,14.64
2023-05-14T23:50:38.160Z,14.65
2023-05-14T23:53:04.479Z,14.67
2023-05-14T23:55:30.778Z,14.59
2023-05-14T23:57:57.055Z,14.58
